sensor_id;sensor_type;location;lat;lon;timestamp;temperature;humidity
7030;DHT22;3556;53.500;10.176;2023-08-01T00:00:31;16.60;99.90
7030;DHT22;3556;53.500;10.176;2023-08-01T00:02:57;16.60;99.90
7030;DHT22;3556;53.500;10.176;2023-08-01T00:05:23;16.50;99.90
7030;DHT22;3556;53.500;10.176;2023-08-01T00:07:48;16.50;99.90
7030;DHT22;3556;53.500;10.176;2023-08-01T00:10:14;16.50;99.90
7030;DHT22;3556;53.500;10.176;2023-08-01T00:12:41;16.40;99.90
7030;DHT22;3556;53.500;10.176;2023-08-01T00:15:07;16.40;99.90
7030;DHT22;3556;53.500;10.176;2023-08-01T00:17:33;16.40;99.90
7030;DHT22;3556;53.500;10.176;2023-08-01T00:20:01;16.40;99.90
7030;DHT22;3556;53.500;10.176;2023-08-01T00:22:27;16.30;99.90
7030;DHT22;3556;53.500;10.176;2023-08-01T00:24:52;16.30;99.90
7030;DHT22;3556;53.500;10.176;2023-08-01T00:27:18;16.30;99.90
7030;DHT22;3556;53.500;10.176;2023-08-01T00:29:44;16.30;99.90
7030;DHT22;3556;53.500;10.176;2023-08-01T00:32:10;16.30;99.90
7030;DHT22;3556;53.500;10.176;2023-08-01T00:34:36;16.30;99.90
7030;DHT22;3556;53.500;10.176;2023-08-01T00:37:01;16.30;99.90
7030;DHT22;3556;53.500;10.176;2023-08-01T00:39:27;16.20;99.90
7030;DHT22;3556;53.500;10.176;2023-08-01T00:41:52;16.20;99.90
7030;DHT22;3556;53.500;10.176;2023-08-01T00:44:18;16.20;99.90
7030;DHT22;3556;53.500;10.176;2023-08-01T00:46:44;16.20;99.90
7030;DHT22;3556;53.500;10.176;2023-08-01T00:49:10;16.20;99.90
7030;DHT22;3556;53.500;10.176;2023-08-01T00:51:36;16.20;99.90
7030;DHT22;3556;53.500;10.176;2023-08-01T00:54:02;16.20;99.90
7030;DHT22;3556;53.500;10.176;2023-08-01T00:56:28;16.10;99.90
7030;DHT22;3556;53.500;10.176;2023-08-01T00:58:53;16.10;99.90
7030;DHT22;3556;53.500;10.176;2023-08-01T01:01:19;16.10;99.90
7030;DHT22;3556;53.500;10.176;2023-08-01T01:03:45;16.10;99.90
7030;DHT22;3556;53.500;10.176;2023-08-01T01:06:19;16.10;99.90
7030;DHT22;3556;53.500;10.176;2023-08-01T01:08:47;16.00;99.90
7030;DHT22;3556;53.500;10.176;2023-08-01T01:11:13;16.10;99.90
7030;DHT22;3556;53.500;10.176;2023-08-01T01:13:39;16.00;99.90
7030;DHT22;3556;53.500;10.176;2023-08-01T01:16:04;16.00;99.90
7030;DHT22;3556;53.500;10.176;2023-08-01T01:18:30;16.00;99.90
7030;DHT22;3556;53.500;10.176;2023-08-01T01:20:55;16.00;99.90
7030;DHT22;3556;53.500;10.176;2023-08-01T01:23:21;16.00;99.90
7030;DHT22;3556;53.500;10.176;2023-08-01T01:25:49;16.00;99.90
7030;DHT22;3556;53.500;10.176;2023-08-01T01:28:16;16.00;99.90
7030;DHT22;3556;53.500;10.176;2023-08-01T01:30:42;16.00;99.90
7030;DHT22;3556;53.500;10.176;2023-08-01T01:33:09;15.90;99.90
7030;DHT22;3556;53.500;10.176;2023-08-01T01:35:35;15.90;99.90
7030;DHT22;3556;53.500;10.176;2023-08-01T01:38:02;15.90;99.90
7030;DHT22;3556;53.500;10.176;2023-08-01T01:40:31;15.90;99.90
7030;DHT22;3556;53.500;10.176;2023-08-01T01:42:57;15.90;99.90
7030;DHT22;3556;53.500;10.176;2023-08-01T01:45:23;15.90;99.90
7030;DHT22;3556;53.500;10.176;2023-08-01T01:47:49;15.90;99.90
7030;DHT22;3556;53.500;10.176;2023-08-01T01:50:14;15.90;99.90
7030;DHT22;3556;53.500;10.176;2023-08-01T01:52:40;15.80;99.90
7030;DHT22;3556;53.500;10.176;2023-08-01T01:55:06;15.90;99.90
7030;DHT22;3556;53.500;10.176;2023-08-01T01:57:31;15.90;99.90
7030;DHT22;3556;53.500;10.176;2023-08-01T01:59:57;15.90;99.90
7030;DHT22;3556;53.500;10.176;2023-08-01T02:02:22;15.90;99.90
7030;DHT22;3556;53.500;10.176;2023-08-01T02:04:49;15.80;99.90
7030;DHT22;3556;53.500;10.176;2023-08-01T02:07:15;15.80;99.90
7030;DHT22;3556;53.500;10.176;2023-08-01T02:09:41;15.80;99.90
7030;DHT22;3556;53.500;10.176;2023-08-01T02:12:07;15.80;99.90
7030;DHT22;3556;53.500;10.176;2023-08-01T02:14:35;15.80;99.90
7030;DHT22;3556;53.500;10.176;2023-08-01T02:17:01;15.80;99.90
7030;DHT22;3556;53.500;10.176;2023-08-01T02:19:27;15.80;99.90
7030;DHT22;3556;53.500;10.176;2023-08-01T02:21:53;15.80;99.90
7030;DHT22;3556;53.500;10.176;2023-08-01T02:24:19;15.80;99.90
7030;DHT22;3556;53.500;10.176;2023-08-01T02:26:45;15.80;99.90
7030;DHT22;3556;53.500;10.176;2023-08-01T02:29:10;15.80;99.90
7030;DHT22;3556;53.500;10.176;2023-08-01T02:31:36;15.80;99.90
7030;DHT22;3556;53.500;10.176;2023-08-01T02:34:02;15.80;99.90
7030;DHT22;3556;53.500;10.176;2023-08-01T02:36:27;15.90;99.90
7030;DHT22;3556;53.500;10.176;2023-08-01T02:38:53;15.90;99.90
7030;DHT22;3556;53.500;10.176;2023-08-01T02:41:18;15.90;99.90
7030;DHT22;3556;53.500;10.176;2023-08-01T02:43:44;15.90;99.90
7030;DHT22;3556;53.500;10.176;2023-08-01T02:46:10;15.90;99.90
7030;DHT22;3556;53.500;10.176;2023-08-01T02:48:35;15.90;99.90
7030;DHT22;3556;53.500;10.176;2023-08-01T02:51:01;15.90;99.90
7030;DHT22;3556;53.500;10.176;2023-08-01T02:53:27;15.90;99.90
7030;DHT22;3556;53.500;10.176;2023-08-01T02:55:53;15.90;99.90
7030;DHT22;3556;53.500;10.176;2023-08-01T02:58:18;16.00;99.90
7030;DHT22;3556;53.500;10.176;2023-08-01T03:00:44;15.90;99.90
7030;DHT22;3556;53.500;10.176;2023-08-01T03:03:10;15.90;99.90
7030;DHT22;3556;53.500;10.176;2023-08-01T03:05:36;16.00;99.90
7030;DHT22;3556;53.500;10.176;2023-08-01T03:08:03;16.00;99.90
7030;DHT22;3556;53.500;10.176;2023-08-01T03:10:29;16.00;99.90
7030;DHT22;3556;53.500;10.176;2023-08-01T03:12:55;16.00;99.90
7030;DHT22;3556;53.500;10.176;2023-08-01T03:15:21;16.00;99.90
7030;DHT22;3556;53.500;10.176;2023-08-01T03:17:46;16.00;99.90
7030;DHT22;3556;53.500;10.176;2023-08-01T03:20:12;16.00;99.90
7030;DHT22;3556;53.500;10.176;2023-08-01T03:22:41;16.00;99.90
7030;DHT22;3556;53.500;10.176;2023-08-01T03:25:07;16.10;99.90
7030;DHT22;3556;53.500;10.176;2023-08-01T03:27:36;16.10;99.90
7030;DHT22;3556;53.500;10.176;2023-08-01T03:30:03;16.10;99.90
7030;DHT22;3556;53.500;10.176;2023-08-01T03:32:30;16.00;99.90
7030;DHT22;3556;53.500;10.176;2023-08-01T03:34:56;16.00;99.90
7030;DHT22;3556;53.500;10.176;2023-08-01T03:37:21;16.00;99.90
7030;DHT22;3556;53.500;10.176;2023-08-01T03:39:47;16.00;99.90
7030;DHT22;3556;53.500;10.176;2023-08-01T03:42:12;16.00;99.90
7030;DHT22;3556;53.500;10.176;2023-08-01T03:44:38;16.10;99.90
7030;DHT22;3556;53.500;10.176;2023-08-01T03:47:04;16.00;99.90
7030;DHT22;3556;53.500;10.176;2023-08-01T03:49:30;16.10;99.90
7030;DHT22;3556;53.500;10.176;2023-08-01T03:51:55;16.10;99.90
7030;DHT22;3556;53.500;10.176;2023-08-01T03:54:21;16.10;99.90
7030;DHT22;3556;53.500;10.176;2023-08-01T03:56:46;16.10;99.90
7030;DHT22;3556;53.500;10.176;2023-08-01T03:59:13;16.10;99.90
7030;DHT22;3556;53.500;10.176;2023-08-01T04:01:40;16.10;99.90
7030;DHT22;3556;53.500;10.176;2023-08-01T04:04:06;16.20;99.90
7030;DHT22;3556;53.500;10.176;2023-08-01T04:06:32;16.10;99.90
7030;DHT22;3556;53.500;10.176;2023-08-01T04:08:57;16.20;99.90
7030;DHT22;3556;53.500;10.176;2023-08-01T04:11:25;16.20;99.90
7030;DHT22;3556;53.500;10.176;2023-08-01T04:13:51;16.20;99.90
7030;DHT22;3556;53.500;10.176;2023-08-01T04:16:16;16.20;99.90
7030;DHT22;3556;53.500;10.176;2023-08-01T04:18:42;16.20;99.90
7030;DHT22;3556;53.500;10.176;2023-08-01T04:21:08;16.10;99.90
7030;DHT22;3556;53.500;10.176;2023-08-01T04:23:34;16.20;99.90
7030;DHT22;3556;53.500;10.176;2023-08-01T04:25:59;16.20;99.90
7030;DHT22;3556;53.500;10.176;2023-08-01T04:28:25;16.20;99.90
7030;DHT22;3556;53.500;10.176;2023-08-01T04:30:52;16.20;99.90
7030;DHT22;3556;53.500;10.176;2023-08-01T04:33:18;16.20;99.90
7030;DHT22;3556;53.500;10.176;2023-08-01T04:35:44;16.20;99.90
7030;DHT22;3556;53.500;10.176;2023-08-01T04:38:09;16.30;99.90
7030;DHT22;3556;53.500;10.176;2023-08-01T04:40:36;16.30;99.90
7030;DHT22;3556;53.500;10.176;2023-08-01T04:43:02;16.30;99.90
7030;DHT22;3556;53.500;10.176;2023-08-01T04:45:28;16.30;99.90
7030;DHT22;3556;53.500;10.176;2023-08-01T04:47:53;16.30;99.90
7030;DHT22;3556;53.500;10.176;2023-08-01T04:50:19;16.20;99.90
7030;DHT22;3556;53.500;10.176;2023-08-01T04:52:45;16.20;99.90
7030;DHT22;3556;53.500;10.176;2023-08-01T04:55:10;16.30;99.90
7030;DHT22;3556;53.500;10.176;2023-08-01T04:57:36;16.30;99.90
7030;DHT22;3556;53.500;10.176;2023-08-01T05:00:03;16.30;99.90
7030;DHT22;3556;53.500;10.176;2023-08-01T05:02:29;16.30;99.90
7030;DHT22;3556;53.500;10.176;2023-08-01T05:04:54;16.20;99.90
7030;DHT22;3556;53.500;10.176;2023-08-01T05:07:20;16.20;99.90
7030;DHT22;3556;53.500;10.176;2023-08-01T05:09:46;16.30;99.90
7030;DHT22;3556;53.500;10.176;2023-08-01T05:12:11;16.30;99.90
7030;DHT22;3556;53.500;10.176;2023-08-01T05:14:37;16.20;99.90
7030;DHT22;3556;53.500;10.176;2023-08-01T05:17:03;16.20;99.90
7030;DHT22;3556;53.500;10.176;2023-08-01T05:19:29;16.30;99.90
7030;DHT22;3556;53.500;10.176;2023-08-01T05:21:54;16.30;99.90
7030;DHT22;3556;53.500;10.176;2023-08-01T05:24:20;16.30;99.90
7030;DHT22;3556;53.500;10.176;2023-08-01T05:26:46;16.30;99.90
7030;DHT22;3556;53.500;10.176;2023-08-01T05:29:12;16.30;99.90
7030;DHT22;3556;53.500;10.176;2023-08-01T05:31:38;16.30;99.90
7030;DHT22;3556;53.500;10.176;2023-08-01T05:34:03;16.30;99.90
7030;DHT22;3556;53.500;10.176;2023-08-01T05:36:29;16.20;99.90
7030;DHT22;3556;53.500;10.176;2023-08-01T05:38:56;16.30;99.90
7030;DHT22;3556;53.500;10.176;2023-08-01T05:41:21;16.20;99.90
7030;DHT22;3556;53.500;10.176;2023-08-01T05:43:48;16.20;99.90
7030;DHT22;3556;53.500;10.176;2023-08-01T05:46:14;16.20;99.90
7030;DHT22;3556;53.500;10.176;2023-08-01T05:48:40;16.10;99.90
7030;DHT22;3556;53.500;10.176;2023-08-01T05:51:05;16.10;99.90
7030;DHT22;3556;53.500;10.176;2023-08-01T05:53:31;16.10;99.90
7030;DHT22;3556;53.500;10.176;2023-08-01T05:55:57;16.10;99.90
7030;DHT22;3556;53.500;10.176;2023-08-01T05:58:22;16.10;99.90
7030;DHT22;3556;53.500;10.176;2023-08-01T06:00:48;16.10;99.90
7030;DHT22;3556;53.500;10.176;2023-08-01T06:03:14;16.10;99.90
7030;DHT22;3556;53.500;10.176;2023-08-01T06:05:40;16.20;99.90
7030;DHT22;3556;53.500;10.176;2023-08-01T06:08:06;16.20;99.90
7030;DHT22;3556;53.500;10.176;2023-08-01T06:10:33;16.30;99.90
7030;DHT22;3556;53.500;10.176;2023-08-01T06:12:59;16.20;99.90
7030;DHT22;3556;53.500;10.176;2023-08-01T06:15:24;16.20;99.90
7030;DHT22;3556;53.500;10.176;2023-08-01T06:17:50;16.20;99.90
7030;DHT22;3556;53.500;10.176;2023-08-01T06:20:16;16.30;99.90
7030;DHT22;3556;53.500;10.176;2023-08-01T06:22:42;16.30;99.90
7030;DHT22;3556;53.500;10.176;2023-08-01T06:25:08;16.20;99.90
7030;DHT22;3556;53.500;10.176;2023-08-01T06:27:34;16.20;99.90
7030;DHT22;3556;53.500;10.176;2023-08-01T06:30:00;16.20;99.90
7030;DHT22;3556;53.500;10.176;2023-08-01T06:32:25;16.20;99.90
7030;DHT22;3556;53.500;10.176;2023-08-01T06:34:51;16.30;99.90
7030;DHT22;3556;53.500;10.176;2023-08-01T06:37:17;16.30;99.90
7030;DHT22;3556;53.500;10.176;2023-08-01T06:39:42;16.40;99.90
7030;DHT22;3556;53.500;10.176;2023-08-01T06:42:08;16.40;99.90
7030;DHT22;3556;53.500;10.176;2023-08-01T06:44:34;16.40;99.90
7030;DHT22;3556;53.500;10.176;2023-08-01T06:46:59;16.50;99.90
7030;DHT22;3556;53.500;10.176;2023-08-01T06:49:25;16.50;99.90
7030;DHT22;3556;53.500;10.176;2023-08-01T06:51:51;16.50;99.90
7030;DHT22;3556;53.500;10.176;2023-08-01T06:54:16;16.50;99.90
7030;DHT22;3556;53.500;10.176;2023-08-01T06:56:42;16.40;99.90
7030;DHT22;3556;53.500;10.176;2023-08-01T06:59:13;16.40;99.90
7030;DHT22;3556;53.500;10.176;2023-08-01T07:01:40;16.40;99.90
7030;DHT22;3556;53.500;10.176;2023-08-01T07:04:06;16.40;99.90
7030;DHT22;3556;53.500;10.176;2023-08-01T07:06:31;16.30;99.90
7030;DHT22;3556;53.500;10.176;2023-08-01T07:08:57;16.30;99.90
7030;DHT22;3556;53.500;10.176;2023-08-01T07:11:23;16.30;99.90
7030;DHT22;3556;53.500;10.176;2023-08-01T07:13:48;16.30;99.90
7030;DHT22;3556;53.500;10.176;2023-08-01T07:16:14;16.30;99.90
7030;DHT22;3556;53.500;10.176;2023-08-01T07:18:40;16.30;99.90
7030;DHT22;3556;53.500;10.176;2023-08-01T07:21:06;16.30;99.90
7030;DHT22;3556;53.500;10.176;2023-08-01T07:23:34;16.40;99.90
7030;DHT22;3556;53.500;10.176;2023-08-01T07:25:59;16.40;99.90
7030;DHT22;3556;53.500;10.176;2023-08-01T07:28:25;16.50;99.90
7030;DHT22;3556;53.500;10.176;2023-08-01T07:31:01;16.50;99.90
7030;DHT22;3556;53.500;10.176;2023-08-01T07:33:27;16.60;99.90
7030;DHT22;3556;53.500;10.176;2023-08-01T07:35:52;16.70;99.90
7030;DHT22;3556;53.500;10.176;2023-08-01T07:38:18;16.80;99.90
7030;DHT22;3556;53.500;10.176;2023-08-01T07:40:44;16.80;99.90
7030;DHT22;3556;53.500;10.176;2023-08-01T07:43:09;16.70;99.90
7030;DHT22;3556;53.500;10.176;2023-08-01T07:45:35;16.70;99.90
7030;DHT22;3556;53.500;10.176;2023-08-01T07:48:01;16.60;99.90
7030;DHT22;3556;53.500;10.176;2023-08-01T07:50:27;16.70;99.90
7030;DHT22;3556;53.500;10.176;2023-08-01T07:52:52;16.70;99.90
7030;DHT22;3556;53.500;10.176;2023-08-01T07:55:18;16.80;99.90
7030;DHT22;3556;53.500;10.176;2023-08-01T07:57:44;16.90;99.90
7030;DHT22;3556;53.500;10.176;2023-08-01T08:00:10;17.00;99.90
7030;DHT22;3556;53.500;10.176;2023-08-01T08:02:36;17.10;99.90
7030;DHT22;3556;53.500;10.176;2023-08-01T08:05:02;17.10;99.90
7030;DHT22;3556;53.500;10.176;2023-08-01T08:07:27;17.10;99.90
7030;DHT22;3556;53.500;10.176;2023-08-01T08:09:53;17.00;99.90
7030;DHT22;3556;53.500;10.176;2023-08-01T08:12:21;17.10;99.90
7030;DHT22;3556;53.500;10.176;2023-08-01T08:14:47;17.10;99.90
7030;DHT22;3556;53.500;10.176;2023-08-01T08:17:12;17.20;99.90
7030;DHT22;3556;53.500;10.176;2023-08-01T08:19:38;17.20;99.90
7030;DHT22;3556;53.500;10.176;2023-08-01T08:22:04;17.30;99.90
7030;DHT22;3556;53.500;10.176;2023-08-01T08:24:30;17.40;99.90
7030;DHT22;3556;53.500;10.176;2023-08-01T08:26:55;17.40;99.90
7030;DHT22;3556;53.500;10.176;2023-08-01T08:29:21;17.60;99.90
7030;DHT22;3556;53.500;10.176;2023-08-01T08:31:47;17.80;99.90
7030;DHT22;3556;53.500;10.176;2023-08-01T08:34:13;17.90;99.90
7030;DHT22;3556;53.500;10.176;2023-08-01T08:36:39;17.90;99.90
7030;DHT22;3556;53.500;10.176;2023-08-01T08:39:04;17.90;99.90
7030;DHT22;3556;53.500;10.176;2023-08-01T08:41:35;17.80;99.90
7030;DHT22;3556;53.500;10.176;2023-08-01T08:44:06;17.80;99.90
7030;DHT22;3556;53.500;10.176;2023-08-01T08:46:34;17.80;99.90
7030;DHT22;3556;53.500;10.176;2023-08-01T08:49:04;17.80;99.90
7030;DHT22;3556;53.500;10.176;2023-08-01T08:51:31;18.00;99.90
7030;DHT22;3556;53.500;10.176;2023-08-01T08:53:57;18.10;99.90
7030;DHT22;3556;53.500;10.176;2023-08-01T08:56:23;18.20;99.90
7030;DHT22;3556;53.500;10.176;2023-08-01T08:58:49;18.40;99.90
7030;DHT22;3556;53.500;10.176;2023-08-01T09:01:15;18.50;99.90
7030;DHT22;3556;53.500;10.176;2023-08-01T09:03:42;18.50;99.90
7030;DHT22;3556;53.500;10.176;2023-08-01T09:06:13;18.60;99.90
7030;DHT22;3556;53.500;10.176;2023-08-01T09:08:40;18.60;99.90
7030;DHT22;3556;53.500;10.176;2023-08-01T09:11:06;18.70;99.90
7030;DHT22;3556;53.500;10.176;2023-08-01T09:13:32;18.80;99.90
7030;DHT22;3556;53.500;10.176;2023-08-01T09:15:57;18.80;99.90
7030;DHT22;3556;53.500;10.176;2023-08-01T09:18:23;18.90;99.90
7030;DHT22;3556;53.500;10.176;2023-08-01T09:20:49;18.90;99.90
7030;DHT22;3556;53.500;10.176;2023-08-01T09:23:16;18.90;99.90
7030;DHT22;3556;53.500;10.176;2023-08-01T09:25:43;18.90;99.90
7030;DHT22;3556;53.500;10.176;2023-08-01T09:28:22;18.80;99.90
7030;DHT22;3556;53.500;10.176;2023-08-01T09:30:55;18.80;99.90
7030;DHT22;3556;53.500;10.176;2023-08-01T09:33:21;18.80;99.90
7030;DHT22;3556;53.500;10.176;2023-08-01T09:35:49;18.80;99.90
7030;DHT22;3556;53.500;10.176;2023-08-01T09:38:16;18.80;99.90
7030;DHT22;3556;53.500;10.176;2023-08-01T09:40:43;18.60;99.90
7030;DHT22;3556;53.500;10.176;2023-08-01T09:43:10;18.50;99.90
7030;DHT22;3556;53.500;10.176;2023-08-01T09:45:36;18.40;99.90
7030;DHT22;3556;53.500;10.176;2023-08-01T09:48:02;18.30;99.90
7030;DHT22;3556;53.500;10.176;2023-08-01T09:50:28;18.40;99.90
7030;DHT22;3556;53.500;10.176;2023-08-01T09:52:54;18.60;99.90
7030;DHT22;3556;53.500;10.176;2023-08-01T09:55:32;18.70;99.90
7030;DHT22;3556;53.500;10.176;2023-08-01T09:57:59;18.70;99.90
7030;DHT22;3556;53.500;10.176;2023-08-01T10:00:29;18.90;99.90
7030;DHT22;3556;53.500;10.176;2023-08-01T10:02:57;18.80;99.90
7030;DHT22;3556;53.500;10.176;2023-08-01T10:05:30;18.90;99.90
7030;DHT22;3556;53.500;10.176;2023-08-01T10:07:59;19.00;99.90
7030;DHT22;3556;53.500;10.176;2023-08-01T10:10:26;19.00;99.90
7030;DHT22;3556;53.500;10.176;2023-08-01T10:12:56;19.00;99.90
7030;DHT22;3556;53.500;10.176;2023-08-01T10:15:24;18.90;99.90
7030;DHT22;3556;53.500;10.176;2023-08-01T10:17:51;19.00;99.90
7030;DHT22;3556;53.500;10.176;2023-08-01T10:20:18;19.00;99.90
7030;DHT22;3556;53.500;10.176;2023-08-01T10:22:46;19.00;99.90
7030;DHT22;3556;53.500;10.176;2023-08-01T10:25:13;19.00;99.90
7030;DHT22;3556;53.500;10.176;2023-08-01T10:27:39;18.90;99.90
7030;DHT22;3556;53.500;10.176;2023-08-01T10:30:06;19.00;99.90
7030;DHT22;3556;53.500;10.176;2023-08-01T10:32:35;19.10;99.90
7030;DHT22;3556;53.500;10.176;2023-08-01T10:35:02;19.10;99.90
7030;DHT22;3556;53.500;10.176;2023-08-01T10:37:39;19.30;99.90
7030;DHT22;3556;53.500;10.176;2023-08-01T10:40:06;19.40;99.90
7030;DHT22;3556;53.500;10.176;2023-08-01T10:42:42;19.60;99.90
7030;DHT22;3556;53.500;10.176;2023-08-01T10:45:28;19.80;99.90
7030;DHT22;3556;53.500;10.176;2023-08-01T10:48:09;20.20;99.90
7030;DHT22;3556;53.500;10.176;2023-08-01T10:50:35;20.50;99.90
7030;DHT22;3556;53.500;10.176;2023-08-01T10:53:08;20.70;99.90
7030;DHT22;3556;53.500;10.176;2023-08-01T10:55:46;20.80;99.90
7030;DHT22;3556;53.500;10.176;2023-08-01T10:58:12;21.00;99.90
7030;DHT22;3556;53.500;10.176;2023-08-01T11:00:38;21.30;99.90
7030;DHT22;3556;53.500;10.176;2023-08-01T11:03:04;21.50;99.90
7030;DHT22;3556;53.500;10.176;2023-08-01T11:05:30;21.50;99.90
7030;DHT22;3556;53.500;10.176;2023-08-01T11:07:57;21.40;99.90
7030;DHT22;3556;53.500;10.176;2023-08-01T11:10:33;21.50;99.90
7030;DHT22;3556;53.500;10.176;2023-08-01T11:12:59;21.70;99.90
7030;DHT22;3556;53.500;10.176;2023-08-01T11:15:25;22.00;99.90
7030;DHT22;3556;53.500;10.176;2023-08-01T11:17:54;22.20;99.90
7030;DHT22;3556;53.500;10.176;2023-08-01T11:20:23;22.40;99.90
7030;DHT22;3556;53.500;10.176;2023-08-01T11:22:59;22.40;99.90
7030;DHT22;3556;53.500;10.176;2023-08-01T11:25:41;22.30;99.90
7030;DHT22;3556;53.500;10.176;2023-08-01T11:28:10;22.10;99.90
7030;DHT22;3556;53.500;10.176;2023-08-01T11:30:36;21.50;99.90
7030;DHT22;3556;53.500;10.176;2023-08-01T11:33:12;20.80;99.90
7030;DHT22;3556;53.500;10.176;2023-08-01T11:35:38;20.20;99.90
7030;DHT22;3556;53.500;10.176;2023-08-01T11:38:04;19.70;99.90
7030;DHT22;3556;53.500;10.176;2023-08-01T11:40:32;19.10;99.90
7030;DHT22;3556;53.500;10.176;2023-08-01T11:42:58;18.80;99.90
7030;DHT22;3556;53.500;10.176;2023-08-01T11:45:24;18.40;99.90
7030;DHT22;3556;53.500;10.176;2023-08-01T11:47:50;18.10;99.90
7030;DHT22;3556;53.500;10.176;2023-08-01T11:50:21;17.80;99.90
7030;DHT22;3556;53.500;10.176;2023-08-01T11:52:48;17.60;99.90
7030;DHT22;3556;53.500;10.176;2023-08-01T11:55:21;17.30;99.90
7030;DHT22;3556;53.500;10.176;2023-08-01T11:57:55;17.20;99.90
7030;DHT22;3556;53.500;10.176;2023-08-01T12:00:23;17.10;99.90
7030;DHT22;3556;53.500;10.176;2023-08-01T12:02:49;17.10;99.90
7030;DHT22;3556;53.500;10.176;2023-08-01T12:05:22;17.00;99.90
7030;DHT22;3556;53.500;10.176;2023-08-01T12:07:47;16.90;99.90
7030;DHT22;3556;53.500;10.176;2023-08-01T12:10:13;16.80;99.90
7030;DHT22;3556;53.500;10.176;2023-08-01T12:12:44;17.20;99.90
7030;DHT22;3556;53.500;10.176;2023-08-01T12:15:11;17.50;99.90
7030;DHT22;3556;53.500;10.176;2023-08-01T12:17:37;17.80;99.90
7030;DHT22;3556;53.500;10.176;2023-08-01T12:20:03;18.10;99.90
7030;DHT22;3556;53.500;10.176;2023-08-01T12:22:28;18.40;99.90
7030;DHT22;3556;53.500;10.176;2023-08-01T12:24:54;18.60;99.90
7030;DHT22;3556;53.500;10.176;2023-08-01T12:27:19;18.90;99.90
7030;DHT22;3556;53.500;10.176;2023-08-01T12:29:45;19.00;99.90
7030;DHT22;3556;53.500;10.176;2023-08-01T12:32:11;18.80;99.90
7030;DHT22;3556;53.500;10.176;2023-08-01T12:34:36;18.60;99.90
7030;DHT22;3556;53.500;10.176;2023-08-01T12:37:02;18.50;99.90
7030;DHT22;3556;53.500;10.176;2023-08-01T12:39:28;18.40;99.90
7030;DHT22;3556;53.500;10.176;2023-08-01T12:41:53;18.30;99.90
7030;DHT22;3556;53.500;10.176;2023-08-01T12:44:20;18.10;99.90
7030;DHT22;3556;53.500;10.176;2023-08-01T12:46:45;18.00;99.90
7030;DHT22;3556;53.500;10.176;2023-08-01T12:49:11;17.90;99.90
7030;DHT22;3556;53.500;10.176;2023-08-01T12:51:37;17.80;99.90
7030;DHT22;3556;53.500;10.176;2023-08-01T12:54:03;17.80;99.90
7030;DHT22;3556;53.500;10.176;2023-08-01T12:56:29;17.70;99.90
7030;DHT22;3556;53.500;10.176;2023-08-01T12:58:54;17.50;99.90
7030;DHT22;3556;53.500;10.176;2023-08-01T13:01:20;17.40;99.90
7030;DHT22;3556;53.500;10.176;2023-08-01T13:03:45;17.30;99.90
7030;DHT22;3556;53.500;10.176;2023-08-01T13:06:11;17.20;99.90
7030;DHT22;3556;53.500;10.176;2023-08-01T13:08:38;17.40;99.90
7030;DHT22;3556;53.500;10.176;2023-08-01T13:11:14;17.60;99.90
7030;DHT22;3556;53.500;10.176;2023-08-01T13:13:41;17.80;99.90
7030;DHT22;3556;53.500;10.176;2023-08-01T13:16:07;17.90;99.90
7030;DHT22;3556;53.500;10.176;2023-08-01T13:18:32;18.00;99.90
7030;DHT22;3556;53.500;10.176;2023-08-01T13:20:58;18.10;99.90
7030;DHT22;3556;53.500;10.176;2023-08-01T13:23:25;18.20;99.90
7030;DHT22;3556;53.500;10.176;2023-08-01T13:25:51;18.40;99.90
7030;DHT22;3556;53.500;10.176;2023-08-01T13:28:16;18.60;99.90
7030;DHT22;3556;53.500;10.176;2023-08-01T13:30:42;18.80;99.90
7030;DHT22;3556;53.500;10.176;2023-08-01T13:33:08;18.90;99.90
7030;DHT22;3556;53.500;10.176;2023-08-01T13:35:34;19.10;99.90
7030;DHT22;3556;53.500;10.176;2023-08-01T13:37:59;19.20;99.90
7030;DHT22;3556;53.500;10.176;2023-08-01T13:40:25;19.30;99.90
7030;DHT22;3556;53.500;10.176;2023-08-01T13:42:51;19.60;99.90
7030;DHT22;3556;53.500;10.176;2023-08-01T13:45:17;19.80;99.90
7030;DHT22;3556;53.500;10.176;2023-08-01T13:47:42;19.80;99.90
7030;DHT22;3556;53.500;10.176;2023-08-01T13:50:08;19.70;99.90
7030;DHT22;3556;53.500;10.176;2023-08-01T13:52:36;19.70;99.90
7030;DHT22;3556;53.500;10.176;2023-08-01T13:55:02;19.60;99.90
7030;DHT22;3556;53.500;10.176;2023-08-01T13:57:28;19.60;99.90
7030;DHT22;3556;53.500;10.176;2023-08-01T13:59:54;19.40;99.90
7030;DHT22;3556;53.500;10.176;2023-08-01T14:02:19;19.30;99.90
7030;DHT22;3556;53.500;10.176;2023-08-01T14:04:45;19.10;99.90
7030;DHT22;3556;53.500;10.176;2023-08-01T14:07:10;19.10;99.90
7030;DHT22;3556;53.500;10.176;2023-08-01T14:09:36;19.20;99.90
7030;DHT22;3556;53.500;10.176;2023-08-01T14:12:02;19.40;99.90
7030;DHT22;3556;53.500;10.176;2023-08-01T14:14:28;19.50;99.90
7030;DHT22;3556;53.500;10.176;2023-08-01T14:16:53;19.60;99.90
7030;DHT22;3556;53.500;10.176;2023-08-01T14:19:20;19.80;99.90
7030;DHT22;3556;53.500;10.176;2023-08-01T14:21:45;19.90;99.90
7030;DHT22;3556;53.500;10.176;2023-08-01T14:24:11;19.80;99.90
7030;DHT22;3556;53.500;10.176;2023-08-01T14:26:37;19.60;99.90
7030;DHT22;3556;53.500;10.176;2023-08-01T14:29:02;19.40;99.90
7030;DHT22;3556;53.500;10.176;2023-08-01T14:31:28;19.10;99.90
7030;DHT22;3556;53.500;10.176;2023-08-01T14:33:53;18.80;99.90
7030;DHT22;3556;53.500;10.176;2023-08-01T14:36:19;18.70;99.90
7030;DHT22;3556;53.500;10.176;2023-08-01T14:38:45;18.50;99.90
7030;DHT22;3556;53.500;10.176;2023-08-01T14:41:13;18.20;99.90
7030;DHT22;3556;53.500;10.176;2023-08-01T14:43:40;18.10;99.90
7030;DHT22;3556;53.500;10.176;2023-08-01T14:46:05;17.90;99.90
7030;DHT22;3556;53.500;10.176;2023-08-01T14:48:31;17.80;99.90
7030;DHT22;3556;53.500;10.176;2023-08-01T14:50:57;17.80;99.90
7030;DHT22;3556;53.500;10.176;2023-08-01T14:53:22;17.80;99.90
7030;DHT22;3556;53.500;10.176;2023-08-01T14:55:58;17.90;99.90
7030;DHT22;3556;53.500;10.176;2023-08-01T14:58:25;18.20;99.90
7030;DHT22;3556;53.500;10.176;2023-08-01T15:00:51;18.40;99.90
7030;DHT22;3556;53.500;10.176;2023-08-01T15:03:16;18.70;99.90
7030;DHT22;3556;53.500;10.176;2023-08-01T15:05:42;19.00;99.90
7030;DHT22;3556;53.500;10.176;2023-08-01T15:08:08;19.10;99.90
7030;DHT22;3556;53.500;10.176;2023-08-01T15:10:36;19.20;99.90
7030;DHT22;3556;53.500;10.176;2023-08-01T15:13:02;19.20;99.90
7030;DHT22;3556;53.500;10.176;2023-08-01T15:15:27;19.20;99.90
7030;DHT22;3556;53.500;10.176;2023-08-01T15:17:53;19.10;99.90
7030;DHT22;3556;53.500;10.176;2023-08-01T15:20:19;19.10;99.90
7030;DHT22;3556;53.500;10.176;2023-08-01T15:22:44;19.20;99.90
7030;DHT22;3556;53.500;10.176;2023-08-01T15:25:10;19.30;99.90
7030;DHT22;3556;53.500;10.176;2023-08-01T15:27:35;19.20;99.90
7030;DHT22;3556;53.500;10.176;2023-08-01T15:30:01;19.20;99.90
7030;DHT22;3556;53.500;10.176;2023-08-01T15:32:27;19.10;99.90
7030;DHT22;3556;53.500;10.176;2023-08-01T15:34:54;19.10;99.90
7030;DHT22;3556;53.500;10.176;2023-08-01T15:37:20;19.00;99.90
7030;DHT22;3556;53.500;10.176;2023-08-01T15:39:46;19.10;99.90